createdAt,value
2023-05-21T00:01:35.681Z,2.60
2023-05-21T00:04:03.483Z,2.75
2023-05-21T00:06:30.273Z,2.10
2023-05-21T00:08:56.801Z,2.05
2023-05-21T00:11:24.120Z,1.60
2023-05-21T00:13:50.505Z,2.33
2023-05-21T00:16:16.941Z,1.13
2023-05-21T00:18:44.977Z,1.80
2023-05-21T00:21:12.280Z,2.05
2023-05-21T00:23:39.784Z,1.88
2023-05-21T00:26:06.474Z,2.03
2023-05-21T00:28:32.871Z,2.15
2023-05-21T00:30:59.313Z,1.55
2023-05-21T00:33:29.360Z,2.08
2023-05-21T00:35:56.800Z,1.90
2023-05-21T00:38:23.653Z,2.90
2023-05-21T00:40:50.384Z,1.90
2023-05-21T00:43:16.822Z,2.03
2023-05-21T00:45:46.723Z,2.80
2023-05-21T00:48:13.545Z,3.45
2023-05-21T00:50:40.674Z,2.08
2023-05-21T00:53:10.502Z,1.92
2023-05-21T00:55:39.850Z,1.58
2023-05-21T00:58:06.770Z,2.13
2023-05-21T01:00:33.754Z,1.42
2023-05-21T01:03:03.958Z,2.28
2023-05-21T01:05:30.652Z,3.05
2023-05-21T01:07:58.148Z,1.98
2023-05-21T01:10:25.315Z,2.20
2023-05-21T01:12:52.745Z,1.90
2023-05-21T01:15:19.147Z,2.05
2023-05-21T01:17:46.323Z,2.22
2023-05-21T01:20:13.026Z,2.20
2023-05-21T01:22:43.629Z,2.05
2023-05-21T01:25:10.674Z,2.20
2023-05-21T01:27:37.057Z,2.13
2023-05-21T01:30:03.624Z,2.70
2023-05-21T01:32:35.030Z,3.03
2023-05-21T01:35:07.790Z,2.47
2023-05-21T01:37:37.530Z,2.65
2023-05-21T01:40:24.216Z,2.58
2023-05-21T01:42:51.511Z,2.53
2023-05-21T01:45:18.252Z,2.83
2023-05-21T01:47:49.272Z,1.38
2023-05-21T01:50:16.634Z,2.42
2023-05-21T01:52:52.627Z,1.50
2023-05-21T01:55:19.537Z,2.28
2023-05-21T01:57:46.151Z,2.00
2023-05-21T02:00:13.030Z,2.70
2023-05-21T02:02:39.507Z,2.53
2023-05-21T02:05:06.510Z,2.60
2023-05-21T02:07:33.768Z,1.63
2023-05-21T02:10:00.264Z,2.33
2023-05-21T02:12:28.238Z,3.13
2023-05-21T02:14:56.332Z,2.85
2023-05-21T02:17:24.344Z,1.25
2023-05-21T02:19:50.770Z,2.30
2023-05-21T02:22:17.159Z,2.60
2023-05-21T02:24:43.556Z,2.03
2023-05-21T02:27:13.698Z,2.97
2023-05-21T02:29:40.038Z,2.40
2023-05-21T02:32:06.825Z,1.85
2023-05-21T02:34:36.509Z,2.38
2023-05-21T02:37:02.929Z,2.35
2023-05-21T02:39:29.436Z,3.13
2023-05-21T02:41:55.917Z,2.53
2023-05-21T02:44:24.055Z,2.78
2023-05-21T02:46:50.632Z,1.90
2023-05-21T02:49:16.976Z,2.38
2023-05-21T02:51:43.397Z,2.70
2023-05-21T02:54:09.742Z,3.25
2023-05-21T02:56:36.219Z,2.53
2023-05-21T02:59:02.704Z,3.10
2023-05-21T03:01:29.192Z,2.78
2023-05-21T03:03:55.577Z,2.70
2023-05-21T03:06:22.483Z,2.15
2023-05-21T03:08:48.868Z,2.42
2023-05-21T03:11:15.288Z,2.67
2023-05-21T03:13:43.143Z,3.08
2023-05-21T03:16:09.689Z,3.08
2023-05-21T03:18:36.080Z,2.90
2023-05-21T03:21:02.512Z,2.28
2023-05-21T03:23:28.885Z,2.28
2023-05-21T03:25:55.362Z,2.85
2023-05-21T03:28:21.763Z,2.15
2023-05-21T03:30:49.719Z,2.05
2023-05-21T03:33:16.503Z,3.10
2023-05-21T03:35:43.016Z,3.00
2023-05-21T03:38:09.543Z,2.58
2023-05-21T03:40:35.955Z,2.60
2023-05-21T03:43:02.328Z,2.95
2023-05-21T03:45:31.771Z,3.05
2023-05-21T03:47:58.231Z,2.88
2023-05-21T03:50:24.636Z,2.25
2023-05-21T03:52:51.079Z,2.85
2023-05-21T03:55:19.224Z,2.95
2023-05-21T03:57:45.700Z,2.70
2023-05-21T04:00:12.226Z,2.95
2023-05-21T04:02:38.819Z,3.20
2023-05-21T04:05:05.538Z,3.35
2023-05-21T04:07:32.003Z,2.45
2023-05-21T04:09:58.374Z,3.00
2023-05-21T04:12:24.938Z,2.60
2023-05-21T04:14:51.651Z,3.08
2023-05-21T04:17:19.201Z,3.22
2023-05-21T04:19:45.599Z,3.47
2023-05-21T04:22:12.218Z,2.60
2023-05-21T04:24:38.717Z,2.67
2023-05-21T04:27:05.964Z,3.10
2023-05-21T04:29:32.432Z,2.78
2023-05-21T04:31:58.872Z,2.90
2023-05-21T04:34:25.829Z,3.33
2023-05-21T04:36:52.283Z,3.08
2023-05-21T04:39:18.726Z,2.67
2023-05-21T04:41:45.143Z,3.08
2023-05-21T04:44:14.998Z,2.60
2023-05-21T04:46:41.939Z,3.60
2023-05-21T04:49:10.205Z,3.20
2023-05-21T04:51:37.873Z,3.20
2023-05-21T04:54:04.336Z,3.08
2023-05-21T04:56:31.905Z,3.13
2023-05-21T04:58:58.985Z,2.63
2023-05-21T05:01:27.145Z,3.17
2023-05-21T05:03:53.867Z,3.15
2023-05-21T05:06:21.417Z,2.90
2023-05-21T05:08:47.950Z,2.80
2023-05-21T05:11:14.360Z,2.97
2023-05-21T05:13:41.968Z,3.50
2023-05-21T05:16:08.569Z,2.83
2023-05-21T05:18:35.439Z,2.70
2023-05-21T05:21:02.301Z,3.58
2023-05-21T05:23:28.726Z,2.67
2023-05-21T05:25:56.842Z,3.45
2023-05-21T05:28:23.291Z,2.92
2023-05-21T05:30:49.805Z,3.15
2023-05-21T05:33:16.307Z,3.08
2023-05-21T05:35:42.727Z,3.28
2023-05-21T05:38:09.257Z,3.00
2023-05-21T05:40:35.671Z,3.33
2023-05-21T05:43:02.053Z,2.97
2023-05-21T05:45:28.480Z,3.38
2023-05-21T05:47:54.930Z,3.55
2023-05-21T05:50:21.544Z,2.78
2023-05-21T05:52:47.934Z,2.95
2023-05-21T05:55:14.366Z,2.90
2023-05-21T05:57:40.913Z,2.40
2023-05-21T06:00:10.437Z,2.67
2023-05-21T06:02:37.531Z,2.75
2023-05-21T06:05:04.227Z,2.95
2023-05-21T06:07:30.747Z,3.08
2023-05-21T06:09:57.109Z,3.20
2023-05-21T06:12:23.610Z,3.22
2023-05-21T06:14:50.940Z,2.90
2023-05-21T06:17:17.440Z,2.78
2023-05-21T06:19:45.208Z,2.75
2023-05-21T06:22:11.653Z,3.95
2023-05-21T06:24:38.017Z,2.95
2023-05-21T06:27:04.499Z,2.85
2023-05-21T06:29:30.994Z,2.60
2023-05-21T06:31:57.516Z,2.90
2023-05-21T06:34:24.011Z,3.20
2023-05-21T06:36:50.826Z,2.65
2023-05-21T06:39:17.236Z,3.08
2023-05-21T06:41:43.755Z,3.45
2023-05-21T06:44:10.999Z,2.67
2023-05-21T06:46:37.482Z,3.00
2023-05-21T06:49:06.902Z,3.70
2023-05-21T06:51:33.503Z,2.63
2023-05-21T06:53:59.899Z,3.40
2023-05-21T06:56:26.659Z,3.60
2023-05-21T06:58:53.261Z,3.42
2023-05-21T07:01:19.737Z,3.08
2023-05-21T07:03:46.396Z,2.33
2023-05-21T07:06:12.812Z,3.30
2023-05-21T07:08:39.204Z,3.63
2023-05-21T07:11:05.641Z,3.88
2023-05-21T07:13:32.383Z,3.70
2023-05-21T07:15:58.759Z,3.20
2023-05-21T07:18:25.124Z,3.25
2023-05-21T07:20:51.591Z,3.83
2023-05-21T07:23:18.009Z,3.83
2023-05-21T07:25:44.458Z,3.58
2023-05-21T07:28:10.999Z,3.50
2023-05-21T07:30:37.335Z,3.45
2023-05-21T07:33:03.765Z,3.35
2023-05-21T07:35:30.276Z,2.97
2023-05-21T07:37:56.752Z,3.88
2023-05-21T07:40:23.179Z,3.90
2023-05-21T07:42:49.664Z,2.28
2023-05-21T07:45:16.187Z,3.35
2023-05-21T07:47:42.689Z,3.63
2023-05-21T07:50:09.350Z,3.55
2023-05-21T07:52:35.838Z,3.20
2023-05-21T07:55:02.722Z,2.78
2023-05-21T07:57:29.102Z,3.38
2023-05-21T07:59:56.589Z,4.13
2023-05-21T08:02:23.068Z,3.10
2023-05-21T08:04:49.675Z,3.17
2023-05-21T08:07:19.777Z,3.08
2023-05-21T08:09:47.121Z,3.60
2023-05-21T08:12:15.886Z,3.85
2023-05-21T08:14:42.709Z,3.15
2023-05-21T08:17:09.502Z,4.93
2023-05-21T08:19:36.037Z,3.13
2023-05-21T08:22:03.493Z,3.78
2023-05-21T08:24:29.864Z,3.47
2023-05-21T08:26:56.367Z,3.97
2023-05-21T08:29:22.757Z,3.28
2023-05-21T08:31:49.337Z,3.35
2023-05-21T08:34:16.495Z,3.38
2023-05-21T08:36:47.023Z,3.58
2023-05-21T08:39:13.395Z,2.83
2023-05-21T08:41:40.932Z,3.67
2023-05-21T08:44:11.244Z,4.88
2023-05-21T08:46:39.721Z,3.83
2023-05-21T08:49:11.071Z,3.63
2023-05-21T08:51:38.660Z,3.40
2023-05-21T08:54:05.327Z,2.88
2023-05-21T08:56:31.903Z,3.30
2023-05-21T08:58:59.312Z,3.60
2023-05-21T09:01:26.938Z,3.65
2023-05-21T09:04:04.898Z,2.55
2023-05-21T09:06:35.204Z,3.65
2023-05-21T09:09:04.777Z,4.00
2023-05-21T09:11:31.174Z,3.88
2023-05-21T09:13:58.212Z,3.08
2023-05-21T09:16:24.666Z,4.00
2023-05-21T09:18:51.150Z,3.72
2023-05-21T09:21:35.846Z,3.97
2023-05-21T09:24:02.274Z,3.70
2023-05-21T09:26:28.898Z,4.07
2023-05-21T09:28:59.859Z,3.08
2023-05-21T09:31:27.106Z,3.78
2023-05-21T09:33:55.477Z,3.42
2023-05-21T09:36:21.978Z,3.40
2023-05-21T09:38:48.758Z,2.88
2023-05-21T09:41:17.456Z,3.92
2023-05-21T09:43:46.340Z,3.60
2023-05-21T09:46:12.831Z,3.60
2023-05-21T09:48:41.032Z,3.03
2023-05-21T09:51:11.182Z,3.63
2023-05-21T09:53:42.767Z,3.75
2023-05-21T09:56:09.794Z,3.15
2023-05-21T09:58:36.277Z,3.85
2023-05-21T10:01:02.677Z,3.97
2023-05-21T10:03:31.830Z,4.55
2023-05-21T10:05:59.345Z,4.32
2023-05-21T10:08:26.848Z,3.30
2023-05-21T10:10:53.257Z,3.30
2023-05-21T10:13:21.965Z,3.58
2023-05-21T10:15:51.031Z,3.05
2023-05-21T10:18:18.810Z,3.38
2023-05-21T10:20:45.931Z,3.15
2023-05-21T10:23:13.067Z,3.80
2023-05-21T10:25:39.936Z,4.50
2023-05-21T10:28:07.106Z,3.78
2023-05-21T10:30:34.512Z,3.60
2023-05-21T10:33:01.828Z,5.30
2023-05-21T10:35:28.867Z,3.42
2023-05-21T10:37:56.795Z,3.53
2023-05-21T10:40:23.228Z,4.60
2023-05-21T10:43:08.297Z,3.83
2023-05-21T10:45:53.253Z,4.03
2023-05-21T10:48:47.555Z,3.78
2023-05-21T10:51:34.907Z,4.03
2023-05-21T10:54:20.295Z,4.22
2023-05-21T10:57:10.003Z,4.55
2023-05-21T10:59:41.238Z,3.92
2023-05-21T11:02:07.971Z,3.67
2023-05-21T11:04:39.679Z,2.90
2023-05-21T11:07:06.142Z,3.17
2023-05-21T11:09:32.510Z,3.63
2023-05-21T11:12:00.143Z,3.20
2023-05-21T11:14:43.737Z,3.58
2023-05-21T11:17:16.256Z,3.40
2023-05-21T11:19:43.916Z,3.40
2023-05-21T11:22:10.620Z,3.78
2023-05-21T11:24:38.603Z,3.88
2023-05-21T11:27:06.819Z,3.63
2023-05-21T11:29:40.483Z,4.43
2023-05-21T11:32:09.230Z,3.22
2023-05-21T11:34:39.696Z,3.80
2023-05-21T11:37:23.418Z,4.25
2023-05-21T11:39:50.516Z,3.88
2023-05-21T11:42:44.041Z,4.32
2023-05-21T11:45:10.896Z,3.47
2023-05-21T11:47:37.331Z,4.38
2023-05-21T11:50:04.145Z,3.85
2023-05-21T11:52:31.057Z,3.35
2023-05-21T11:54:58.089Z,3.80
2023-05-21T11:57:26.681Z,4.10
2023-05-21T11:59:53.038Z,3.58
2023-05-21T12:02:20.829Z,2.83
2023-05-21T12:04:48.585Z,3.30
2023-05-21T12:07:16.046Z,3.92
2023-05-21T12:09:43.161Z,3.80
2023-05-21T12:12:10.336Z,4.43
2023-05-21T12:14:37.214Z,2.97
2023-05-21T12:17:04.423Z,3.40
2023-05-21T12:19:34.541Z,4.20
2023-05-21T12:22:04.295Z,4.00
2023-05-21T12:24:31.392Z,3.35
2023-05-21T12:27:01.346Z,3.20
2023-05-21T12:29:31.465Z,3.15
2023-05-21T12:32:01.392Z,3.00
2023-05-21T12:34:57.369Z,2.97
2023-05-21T12:37:25.506Z,3.30
2023-05-21T12:39:55.717Z,3.08
2023-05-21T12:42:30.565Z,3.28
2023-05-21T12:44:57.679Z,3.07
2023-05-21T12:47:26.183Z,2.83
2023-05-21T12:49:59.395Z,3.65
2023-05-21T12:52:30.818Z,3.47
2023-05-21T12:54:57.712Z,3.42
2023-05-21T12:57:38.603Z,3.65
2023-05-21T13:00:10.373Z,2.70
2023-05-21T13:02:44.294Z,2.95
2023-05-21T13:05:11.601Z,3.30
2023-05-21T13:07:39.480Z,2.75
2023-05-21T13:10:06.907Z,3.17
2023-05-21T13:12:33.707Z,3.47
2023-05-21T13:15:00.919Z,3.13
2023-05-21T13:17:27.867Z,3.53
2023-05-21T13:20:09.860Z,2.70
2023-05-21T13:22:38.954Z,2.92
2023-05-21T13:25:06.036Z,3.70
2023-05-21T13:27:32.440Z,2.88
2023-05-21T13:29:58.837Z,3.08
2023-05-21T13:32:25.322Z,3.33
2023-05-21T13:34:51.717Z,3.00
2023-05-21T13:37:18.221Z,2.65
2023-05-21T13:39:44.608Z,3.03
2023-05-21T13:42:11.003Z,3.17
2023-05-21T13:44:37.938Z,3.20
2023-05-21T13:47:04.728Z,3.28
2023-05-21T13:49:31.323Z,3.05
2023-05-21T13:51:58.254Z,3.05
2023-05-21T13:54:24.762Z,3.35
2023-05-21T13:56:51.127Z,3.00
2023-05-21T13:59:17.460Z,2.95
2023-05-21T14:01:47.684Z,4.78
2023-05-21T14:04:14.153Z,2.85
2023-05-21T14:06:41.161Z,3.45
2023-05-21T14:09:07.614Z,3.30
2023-05-21T14:11:34.236Z,2.85
2023-05-21T14:14:01.054Z,3.20
2023-05-21T14:16:27.623Z,3.78
2023-05-21T14:18:54.511Z,3.63
2023-05-21T14:21:21.230Z,2.90
2023-05-21T14:23:48.167Z,2.65
2023-05-21T14:26:15.139Z,2.75
2023-05-21T14:28:41.766Z,3.72
2023-05-21T14:31:08.336Z,3.03
2023-05-21T14:33:36.118Z,3.03
2023-05-21T14:36:02.726Z,3.63
2023-05-21T14:38:29.277Z,3.50
2023-05-21T14:40:56.109Z,3.30
2023-05-21T14:43:22.648Z,3.17
2023-05-21T14:45:49.512Z,3.25
2023-05-21T14:48:22.684Z,3.00
2023-05-21T14:50:50.103Z,4.03
2023-05-21T14:53:16.630Z,3.97
2023-05-21T14:55:43.314Z,3.53
2023-05-21T14:58:09.911Z,4.18
2023-05-21T15:00:36.667Z,5.40
2023-05-21T15:03:03.131Z,3.45
2023-05-21T15:05:29.784Z,3.05
2023-05-21T15:07:56.426Z,3.88
2023-05-21T15:10:23.381Z,2.65
2023-05-21T15:12:50.738Z,3.85
2023-05-21T15:15:17.524Z,4.07
2023-05-21T15:17:43.993Z,3.25
2023-05-21T15:20:10.740Z,3.15
2023-05-21T15:22:37.306Z,3.60
2023-05-21T15:25:04.272Z,4.13
2023-05-21T15:27:30.722Z,3.20
2023-05-21T15:29:57.152Z,2.85
2023-05-21T15:32:23.829Z,3.40
2023-05-21T15:34:50.486Z,2.58
2023-05-21T15:37:17.076Z,3.10
2023-05-21T15:39:43.934Z,3.20
2023-05-21T15:42:11.649Z,2.95
2023-05-21T15:44:38.545Z,2.85
2023-05-21T15:47:05.545Z,3.60
2023-05-21T15:49:32.000Z,2.90
2023-05-21T15:52:00.625Z,2.75
2023-05-21T15:54:27.416Z,3.35
2023-05-21T15:56:53.839Z,2.78
2023-05-21T15:59:20.720Z,3.90
2023-05-21T16:01:47.411Z,3.53
2023-05-21T16:04:15.710Z,2.88
2023-05-21T16:06:42.183Z,3.08
2023-05-21T16:09:08.629Z,5.15
2023-05-21T16:11:35.013Z,3.65
2023-05-21T16:14:01.368Z,2.80
2023-05-21T16:16:27.917Z,3.30
2023-05-21T16:18:54.465Z,2.88
2023-05-21T16:21:20.972Z,3.03
2023-05-21T16:23:47.922Z,2.75
2023-05-21T16:26:14.480Z,2.67
2023-05-21T16:28:40.925Z,3.58
2023-05-21T16:31:08.560Z,3.28
2023-05-21T16:33:35.327Z,3.60
2023-05-21T16:36:01.726Z,2.95
2023-05-21T16:38:28.119Z,2.35
2023-05-21T16:40:54.843Z,2.70
2023-05-21T16:43:21.458Z,2.63
2023-05-21T16:45:48.914Z,3.25
2023-05-21T16:48:16.343Z,2.70
2023-05-21T16:50:42.801Z,2.60
2023-05-21T16:53:09.909Z,2.78
2023-05-21T16:55:37.016Z,2.65
2023-05-21T16:58:04.661Z,3.50
2023-05-21T17:00:31.691Z,3.10
2023-05-21T17:02:58.294Z,2.50
2023-05-21T17:05:25.972Z,2.28
2023-05-21T17:07:52.413Z,2.70
2023-05-21T17:10:19.512Z,2.97
2023-05-21T17:12:46.111Z,2.53
2023-05-21T17:15:12.533Z,3.30
2023-05-21T17:17:38.999Z,2.28
2023-05-21T17:20:05.734Z,3.30
2023-05-21T17:22:32.184Z,2.50
2023-05-21T17:24:58.841Z,3.53
2023-05-21T17:27:25.318Z,4.85
2023-05-21T17:29:51.761Z,3.20
2023-05-21T17:32:18.226Z,2.03
2023-05-21T17:34:44.617Z,2.40
2023-05-21T17:37:11.002Z,2.63
2023-05-21T17:39:37.439Z,2.97
2023-05-21T17:42:03.963Z,2.17
2023-05-21T17:44:30.639Z,2.40
2023-05-21T17:46:57.026Z,2.85
2023-05-21T17:49:23.517Z,2.45
2023-05-21T17:51:49.899Z,2.47
2023-05-21T17:54:16.364Z,2.60
2023-05-21T17:56:44.787Z,2.90
2023-05-21T17:59:14.454Z,2.67
2023-05-21T18:01:40.831Z,3.05
2023-05-21T18:04:12.178Z,3.25
2023-05-21T18:06:39.282Z,3.40
2023-05-21T18:09:10.525Z,2.95
2023-05-21T18:11:36.982Z,3.08
2023-05-21T18:14:04.070Z,2.28
2023-05-21T18:16:31.668Z,3.28
2023-05-21T18:18:58.336Z,2.78
2023-05-21T18:21:26.184Z,2.55
2023-05-21T18:23:52.623Z,2.47
2023-05-21T18:26:20.471Z,2.75
2023-05-21T18:28:46.944Z,3.00
2023-05-21T18:31:13.320Z,3.13
2023-05-21T18:33:39.681Z,3.17
2023-05-21T18:36:06.225Z,3.05
2023-05-21T18:38:33.642Z,2.92
2023-05-21T18:41:01.616Z,2.40
2023-05-21T18:43:28.136Z,2.53
2023-05-21T18:45:54.543Z,2.92
2023-05-21T18:48:20.967Z,3.55
2023-05-21T18:50:47.347Z,3.25
2023-05-21T18:53:13.708Z,4.18
2023-05-21T18:55:40.067Z,2.78
2023-05-21T18:58:06.467Z,2.50
2023-05-21T19:00:34.183Z,3.30
2023-05-21T19:03:00.708Z,3.35
2023-05-21T19:05:27.252Z,3.47
2023-05-21T19:07:53.739Z,2.92
2023-05-21T19:10:20.237Z,2.65
2023-05-21T19:12:46.706Z,2.33
2023-05-21T19:15:13.166Z,3.08
2023-05-21T19:17:39.954Z,3.15
2023-05-21T19:20:09.678Z,3.42
2023-05-21T19:22:39.616Z,2.75
2023-05-21T19:25:06.234Z,2.30
2023-05-21T19:27:32.676Z,3.10
2023-05-21T19:29:59.193Z,2.88
2023-05-21T19:32:25.577Z,2.85
2023-05-21T19:34:52.357Z,2.78
2023-05-21T19:37:18.814Z,3.03
2023-05-21T19:39:49.527Z,3.10
2023-05-21T19:42:17.167Z,3.40
2023-05-21T19:44:43.586Z,3.22
2023-05-21T19:47:10.004Z,3.90
2023-05-21T19:49:36.481Z,3.85
2023-05-21T19:52:02.932Z,3.40
2023-05-21T19:54:29.396Z,3.40
2023-05-21T19:56:56.719Z,3.10
2023-05-21T19:59:23.106Z,3.92
2023-05-21T20:01:49.564Z,3.67
2023-05-21T20:04:16.178Z,3.67
2023-05-21T20:06:42.595Z,3.88
2023-05-21T20:09:10.755Z,4.40
2023-05-21T20:11:37.106Z,3.88
2023-05-21T20:14:04.331Z,3.35
2023-05-21T20:16:31.352Z,3.28
2023-05-21T20:18:58.301Z,4.07
2023-05-21T20:21:24.900Z,4.38
2023-05-21T20:23:51.285Z,2.97
2023-05-21T20:26:19.005Z,3.13
2023-05-21T20:28:48.857Z,4.50
2023-05-21T20:31:15.277Z,4.15
2023-05-21T20:33:41.862Z,5.28
2023-05-21T20:36:08.296Z,2.03
2023-05-21T20:38:36.915Z,4.28
2023-05-21T20:41:04.451Z,3.42
2023-05-21T20:43:30.834Z,3.38
2023-05-21T20:46:01.187Z,4.68
2023-05-21T20:48:29.056Z,4.22
2023-05-21T20:50:55.901Z,4.32
2023-05-21T20:53:22.321Z,4.65
2023-05-21T20:55:48.754Z,4.25
2023-05-21T20:58:15.209Z,5.05
2023-05-21T21:00:41.949Z,5.80
2023-05-21T21:03:11.423Z,4.55
2023-05-21T21:05:38.305Z,3.95
2023-05-21T21:08:05.836Z,4.82
2023-05-21T21:10:32.686Z,4.60
2023-05-21T21:12:59.074Z,4.30
2023-05-21T21:15:25.525Z,4.18
2023-05-21T21:17:51.934Z,3.90
2023-05-21T21:20:19.286Z,3.05
2023-05-21T21:22:46.082Z,6.55
2023-05-21T21:25:13.826Z,3.58
2023-05-21T21:27:40.380Z,4.22
2023-05-21T21:30:07.105Z,4.38
2023-05-21T21:32:33.578Z,3.97
2023-05-21T21:35:00.017Z,3.95
2023-05-21T21:37:27.040Z,4.10
2023-05-21T21:39:53.482Z,4.20
2023-05-21T21:42:19.897Z,4.53
2023-05-21T21:44:46.307Z,4.32
2023-05-21T21:47:12.753Z,3.65
2023-05-21T21:49:39.153Z,4.28
2023-05-21T21:52:07.020Z,4.18
2023-05-21T21:54:33.870Z,4.60
2023-05-21T21:57:01.471Z,4.30
2023-05-21T21:59:28.038Z,4.03
2023-05-21T22:01:54.455Z,6.40
2023-05-21T22:04:21.102Z,5.78
2023-05-21T22:06:48.267Z,5.28
2023-05-21T22:09:14.779Z,5.28
2023-05-21T22:11:41.434Z,5.45
2023-05-21T22:14:07.924Z,5.90
2023-05-21T22:16:34.397Z,4.97
2023-05-21T22:19:01.322Z,4.57
2023-05-21T22:21:29.206Z,5.82
2023-05-21T22:23:55.956Z,4.07
2023-05-21T22:26:23.097Z,5.40
2023-05-21T22:28:49.892Z,5.00
2023-05-21T22:31:16.640Z,3.22
2023-05-21T22:33:43.456Z,4.65
2023-05-21T22:36:09.884Z,4.82
2023-05-21T22:38:36.713Z,5.57
2023-05-21T22:41:03.660Z,6.47
2023-05-21T22:43:30.434Z,3.13
2023-05-21T22:45:56.906Z,7.05
2023-05-21T22:48:23.273Z,5.95
2023-05-21T22:50:50.319Z,5.25
2023-05-21T22:53:17.025Z,5.82
2023-05-21T22:55:43.873Z,3.85
2023-05-21T22:58:10.637Z,4.47
2023-05-21T23:00:37.754Z,3.83
2023-05-21T23:03:04.847Z,4.50
2023-05-21T23:05:31.363Z,4.93
2023-05-21T23:07:57.755Z,4.18
2023-05-21T23:10:24.113Z,4.13
2023-05-21T23:12:50.650Z,4.57
2023-05-21T23:15:17.008Z,4.97
2023-05-21T23:17:43.391Z,5.10
2023-05-21T23:20:10.552Z,4.82
2023-05-21T23:22:37.520Z,6.00
2023-05-21T23:25:05.274Z,5.07
2023-05-21T23:27:31.650Z,5.45
2023-05-21T23:29:58.083Z,4.63
2023-05-21T23:32:24.686Z,5.63
2023-05-21T23:34:51.075Z,5.10
2023-05-21T23:37:17.516Z,5.05
2023-05-21T23:39:48.014Z,5.40
2023-05-21T23:42:15.028Z,5.00
2023-05-21T23:44:41.900Z,6.10
2023-05-21T23:47:08.344Z,5.20
2023-05-21T23:49:34.706Z,3.97
2023-05-21T23:52:01.721Z,5.30
2023-05-21T23:54:28.140Z,5.72
2023-05-21T23:56:54.592Z,4.47
2023-05-21T23:59:21.001Z,5.60
